SAS49K EGLL-EKCH
Flight info
| Callsign | SAS49K |
|---|---|
| Flight time | 1h 32m |
| Altitude | 37000 |
| Route | BPK Q295 PAAVO M604 GIVPO DCT VENAS DCT LARGA DCT SOPTO DCT DOREV DCT TESPI |
| Aircraft | A320/M-SDE3FGHIRWY/LB1 |
Departure
| Time | 2026-04-22 17:05 |
|---|---|
| Airport | London Heathrow Airport (EGLL) |
Arrival
| Time | 2026-04-22 18:37 |
|---|---|
| Airport | Copenhagen Kastrup Airport (EKCH) |
| Time | Latitude | Longitude | Altitude | Speed | Heading |
|---|---|---|---|---|---|
| 2026-04-22 16:46 | 51.46830 | -0.44979 | 86 ft | 0 kts | 359° |
| 2026-04-22 16:53 | 51.46812 | -0.44979 | 88 ft | 4 kts | 359° |
| 2026-04-22 16:54 | 51.46786 | -0.44978 | 86 ft | 2 kts | 359° |
| 2026-04-22 16:54 | 51.46764 | -0.44974 | 86 ft | 4 kts | 328° |
| 2026-04-22 16:54 | 51.46751 | -0.44946 | 90 ft | 3 kts | 270° |
| 2026-04-22 16:54 | 51.46751 | -0.44915 | 86 ft | 0 kts | 269° |
| 2026-04-22 16:57 | 51.46751 | -0.44930 | 86 ft | 3 kts | 269° |
| 2026-04-22 16:57 | 51.46751 | -0.44979 | 86 ft | 6 kts | 269° |
| 2026-04-22 16:58 | 51.46751 | -0.45064 | 86 ft | 9 kts | 270° |
| 2026-04-22 16:58 | 51.46751 | -0.45185 | 86 ft | 12 kts | 270° |
| 2026-04-22 16:58 | 51.46751 | -0.45334 | 86 ft | 15 kts | 270° |
| 2026-04-22 16:58 | 51.46750 | -0.45488 | 86 ft | 14 kts | 269° |
| 2026-04-22 16:59 | 51.46750 | -0.45655 | 86 ft | 16 kts | 270° |
| 2026-04-22 16:59 | 51.46749 | -0.45845 | 86 ft | 18 kts | 270° |
| 2026-04-22 16:59 | 51.46748 | -0.46029 | 86 ft | 17 kts | 270° |
| 2026-04-22 16:59 | 51.46748 | -0.46228 | 86 ft | 19 kts | 269° |
| 2026-04-22 17:00 | 51.46749 | -0.46444 | 89 ft | 19 kts | 271° |
| 2026-04-22 17:00 | 51.46748 | -0.46844 | 86 ft | 19 kts | 270° |
| 2026-04-22 17:00 | 51.46747 | -0.47053 | 89 ft | 19 kts | 269° |
| 2026-04-22 17:01 | 51.46746 | -0.47280 | 86 ft | 21 kts | 269° |
| 2026-04-22 17:01 | 51.46745 | -0.47497 | 86 ft | 20 kts | 270° |
| 2026-04-22 17:01 | 51.46745 | -0.47714 | 86 ft | 17 kts | 270° |
| 2026-04-22 17:01 | 51.46745 | -0.47885 | 86 ft | 13 kts | 270° |
| 2026-04-22 17:02 | 51.46745 | -0.48026 | 86 ft | 11 kts | 270° |
| 2026-04-22 17:02 | 51.46744 | -0.48156 | 86 ft | 8 kts | 269° |
| 2026-04-22 17:02 | 51.46707 | -0.48216 | 86 ft | 9 kts | 187° |
| 2026-04-22 17:02 | 51.46639 | -0.48213 | 86 ft | 9 kts | 179° |
| 2026-04-22 17:03 | 51.46608 | -0.48213 | 87 ft | 2 kts | 179° |
| 2026-04-22 17:03 | 51.46584 | -0.48213 | 87 ft | 5 kts | 179° |
| 2026-04-22 17:03 | 51.46537 | -0.48212 | 88 ft | 8 kts | 180° |
| 2026-04-22 17:03 | 51.46487 | -0.48199 | 91 ft | 7 kts | 142° |
| 2026-04-22 17:04 | 51.46478 | -0.48150 | 89 ft | 2 kts | 90° |
| 2026-04-22 17:04 | 51.46480 | -0.48061 | 87 ft | 27 kts | 89° |
| 2026-04-22 17:04 | 51.46480 | -0.47369 | 86 ft | 93 kts | 90° |
| 2026-04-22 17:04 | 51.46484 | -0.46052 | 90 ft | 141 kts | 90° |
| 2026-04-22 17:05 | 51.46482 | -0.44461 | 666 ft | 140 kts | 89° |
| 2026-04-22 17:05 | 51.46487 | -0.42900 | 1314 ft | 141 kts | 89° |
| 2026-04-22 17:05 | 51.46620 | -0.41346 | 1922 ft | 144 kts | 71° |
| 2026-04-22 17:05 | 51.47195 | -0.39929 | 2309 ft | 161 kts | 51° |
| 2026-04-22 17:06 | 51.48007 | -0.38586 | 2729 ft | 174 kts | 52° |
| 2026-04-22 17:06 | 51.48851 | -0.37058 | 3053 ft | 194 kts | 55° |
| 2026-04-22 17:06 | 51.49762 | -0.35274 | 3357 ft | 219 kts | 56° |
| 2026-04-22 17:06 | 51.50768 | -0.33273 | 3805 ft | 241 kts | 56° |
| 2026-04-22 17:07 | 51.51842 | -0.31130 | 4567 ft | 250 kts | 58° |
| 2026-04-22 17:07 | 51.52589 | -0.28666 | 5396 ft | 250 kts | 75° |
| 2026-04-22 17:07 | 51.53153 | -0.25985 | 5854 ft | 255 kts | 75° |
| 2026-04-22 17:07 | 51.53733 | -0.23242 | 5985 ft | 257 kts | 75° |
| 2026-04-22 17:08 | 51.54392 | -0.20566 | 6003 ft | 261 kts | 61° |
| 2026-04-22 17:08 | 51.55743 | -0.18662 | 6007 ft | 272 kts | 28° |
| 2026-04-22 17:08 | 51.57587 | -0.17835 | 6087 ft | 278 kts | 15° |
| 2026-04-22 17:08 | 51.59510 | -0.17110 | 6579 ft | 281 kts | 17° |
| 2026-04-22 17:09 | 51.61408 | -0.16443 | 7434 ft | 285 kts | 16° |
| 2026-04-22 17:09 | 51.63357 | -0.15754 | 8273 ft | 288 kts | 17° |
| 2026-04-22 17:09 | 51.65318 | -0.15005 | 9123 ft | 291 kts | 17° |
| 2026-04-22 17:09 | 51.67295 | -0.14190 | 9929 ft | 295 kts | 19° |
| 2026-04-22 17:10 | 51.69288 | -0.13310 | 10698 ft | 300 kts | 21° |
| 2026-04-22 17:10 | 51.71239 | -0.11900 | 10935 ft | 317 kts | 36° |
| 2026-04-22 17:10 | 51.72981 | -0.09585 | 11093 ft | 335 kts | 50° |
| 2026-04-22 17:10 | 51.74425 | -0.06527 | 11289 ft | 349 kts | 63° |
| 2026-04-22 17:11 | 51.75428 | -0.02939 | 11817 ft | 352 kts | 75° |
| 2026-04-22 17:11 | 51.75929 | 0.00926 | 12387 ft | 354 kts | 85° |
| 2026-04-22 17:11 | 51.76270 | 0.04872 | 13047 ft | 357 kts | 84° |
| 2026-04-22 17:11 | 51.76606 | 0.08858 | 13748 ft | 359 kts | 85° |
| 2026-04-22 17:12 | 51.76936 | 0.12872 | 14390 ft | 363 kts | 85° |
| 2026-04-22 17:12 | 51.77265 | 0.16939 | 14953 ft | 367 kts | 84° |
| 2026-04-22 17:12 | 51.77597 | 0.21032 | 15579 ft | 369 kts | 85° |
| 2026-04-22 17:12 | 51.77935 | 0.25158 | 16116 ft | 373 kts | 84° |
| 2026-04-22 17:13 | 51.78161 | 0.27911 | 16497 ft | 375 kts | 84° |
| 2026-04-22 17:13 | 51.78617 | 0.33522 | 17325 ft | 378 kts | 85° |
| 2026-04-22 17:13 | 51.78956 | 0.37758 | 17862 ft | 383 kts | 85° |
| 2026-04-22 17:13 | 51.79291 | 0.41989 | 18518 ft | 385 kts | 84° |
| 2026-04-22 17:14 | 51.79586 | 0.45746 | 18999 ft | 388 kts | 84° |
| 2026-04-22 17:14 | 51.79918 | 0.49967 | 19448 ft | 393 kts | 83° |
| 2026-04-22 17:14 | 51.80156 | 0.53018 | 19849 ft | 394 kts | 82° |
| 2026-04-22 17:14 | 51.80384 | 0.55942 | 20201 ft | 396 kts | 82° |
| 2026-04-22 17:15 | 51.80735 | 0.60391 | 20653 ft | 401 kts | 81° |
| 2026-04-22 17:15 | 51.81380 | 0.65833 | 21274 ft | 403 kts | 72° |
| 2026-04-22 17:15 | 51.82387 | 0.70106 | 21654 ft | 407 kts | 65° |
| 2026-04-22 17:15 | 51.83492 | 0.74333 | 22107 ft | 410 kts | 65° |
| 2026-04-22 17:16 | 51.84498 | 0.78191 | 22487 ft | 413 kts | 65° |
| 2026-04-22 17:16 | 51.85708 | 0.82423 | 22891 ft | 414 kts | 58° |
| 2026-04-22 17:16 | 51.87300 | 0.86296 | 23301 ft | 414 kts | 49° |
| 2026-04-22 17:16 | 51.89274 | 0.89685 | 23737 ft | 414 kts | 40° |
| 2026-04-22 17:17 | 51.91422 | 0.92798 | 24137 ft | 415 kts | 39° |
| 2026-04-22 17:17 | 51.93581 | 0.95928 | 24480 ft | 417 kts | 39° |
| 2026-04-22 17:17 | 51.95744 | 0.99069 | 24802 ft | 421 kts | 40° |
| 2026-04-22 17:17 | 51.97936 | 1.02260 | 25034 ft | 425 kts | 40° |
| 2026-04-22 17:18 | 52.00139 | 1.05477 | 25370 ft | 427 kts | 40° |
| 2026-04-22 17:18 | 52.02327 | 1.08682 | 25676 ft | 430 kts | 40° |
| 2026-04-22 17:18 | 52.04545 | 1.11927 | 26000 ft | 432 kts | 40° |
| 2026-04-22 17:18 | 52.06908 | 1.14952 | 26310 ft | 433 kts | 35° |
| 2026-04-22 17:19 | 52.11747 | 1.20858 | 26963 ft | 437 kts | 35° |
| 2026-04-22 17:19 | 52.16504 | 1.27039 | 27834 ft | 436 kts | 37° |
| 2026-04-22 17:20 | 52.21101 | 1.33416 | 28875 ft | 432 kts | 37° |
| 2026-04-22 17:20 | 52.25462 | 1.39470 | 29874 ft | 428 kts | 36° |
| 2026-04-22 17:21 | 52.32183 | 1.48677 | 31321 ft | 422 kts | 37° |
| 2026-04-22 17:22 | 52.36464 | 1.55368 | 31948 ft | 428 kts | 43° |
| 2026-04-22 17:22 | 52.38542 | 1.58849 | 32353 ft | 428 kts | 43° |
| 2026-04-22 17:22 | 52.42685 | 1.65824 | 33200 ft | 426 kts | 42° |
| 2026-04-22 17:23 | 52.44749 | 1.69313 | 33629 ft | 425 kts | 42° |
| 2026-04-22 17:23 | 52.48858 | 1.76265 | 34477 ft | 424 kts | 42° |
| 2026-04-22 17:23 | 52.50245 | 1.78614 | 34710 ft | 423 kts | 42° |
| 2026-04-22 17:24 | 52.52956 | 1.83208 | 35118 ft | 423 kts | 43° |
| 2026-04-22 17:24 | 52.55002 | 1.86685 | 35429 ft | 423 kts | 43° |
| 2026-04-22 17:24 | 52.59094 | 1.93649 | 36015 ft | 423 kts | 43° |
| 2026-04-22 17:25 | 52.61138 | 1.97131 | 36304 ft | 423 kts | 43° |
| 2026-04-22 17:25 | 52.63182 | 2.00617 | 36599 ft | 423 kts | 44° |
| 2026-04-22 17:25 | 52.64534 | 2.02925 | 36793 ft | 423 kts | 44° |
| 2026-04-22 17:26 | 52.70955 | 2.13921 | 37415 ft | 426 kts | 44° |
| 2026-04-22 17:26 | 52.75102 | 2.21056 | 37420 ft | 433 kts | 44° |
| 2026-04-22 17:27 | 52.79275 | 2.28267 | 37417 ft | 434 kts | 44° |
| 2026-04-22 17:27 | 52.82064 | 2.33100 | 37418 ft | 435 kts | 44° |
| 2026-04-22 17:28 | 52.92285 | 2.50871 | 37423 ft | 435 kts | 44° |
| 2026-04-22 17:29 | 52.96442 | 2.58138 | 37439 ft | 434 kts | 44° |
| 2026-04-22 17:30 | 53.05831 | 2.67911 | 37435 ft | 430 kts | 26° |
| 2026-04-22 17:30 | 53.11197 | 2.72356 | 37433 ft | 431 kts | 26° |
| 2026-04-22 17:31 | 53.16553 | 2.76829 | 37434 ft | 431 kts | 26° |
| 2026-04-22 17:31 | 53.21909 | 2.81314 | 37432 ft | 431 kts | 26° |
| 2026-04-22 17:32 | 53.27271 | 2.85798 | 37433 ft | 431 kts | 26° |
| 2026-04-22 17:32 | 53.32674 | 2.90143 | 37431 ft | 431 kts | 24° |
| 2026-04-22 17:33 | 53.38163 | 2.94195 | 37433 ft | 431 kts | 23° |
| 2026-04-22 17:33 | 53.43661 | 2.98213 | 37434 ft | 431 kts | 24° |
| 2026-04-22 17:34 | 53.49139 | 3.02322 | 37436 ft | 431 kts | 24° |
| 2026-04-22 17:34 | 53.54609 | 3.06472 | 37442 ft | 431 kts | 24° |
| 2026-04-22 17:35 | 53.60079 | 3.10632 | 37438 ft | 431 kts | 24° |
| 2026-04-22 17:35 | 53.65541 | 3.14801 | 37455 ft | 431 kts | 24° |
| 2026-04-22 17:36 | 53.71005 | 3.18985 | 37455 ft | 431 kts | 25° |
| 2026-04-22 17:36 | 53.76478 | 3.23166 | 37447 ft | 432 kts | 25° |
| 2026-04-22 17:37 | 53.81949 | 3.27365 | 37449 ft | 432 kts | 25° |
| 2026-04-22 17:37 | 53.87422 | 3.31580 | 37450 ft | 432 kts | 25° |
| 2026-04-22 17:38 | 53.92898 | 3.35805 | 37453 ft | 432 kts | 25° |
| 2026-04-22 17:38 | 53.98341 | 3.40011 | 37445 ft | 433 kts | 25° |
| 2026-04-22 17:39 | 54.03854 | 3.44300 | 37452 ft | 433 kts | 25° |
| 2026-04-22 17:40 | 54.12041 | 3.50705 | 37457 ft | 434 kts | 25° |
| 2026-04-22 17:40 | 54.17523 | 3.54995 | 37457 ft | 434 kts | 25° |
| 2026-04-22 17:41 | 54.23014 | 3.59296 | 37448 ft | 434 kts | 26° |
| 2026-04-22 17:41 | 54.28505 | 3.63608 | 37448 ft | 435 kts | 26° |
| 2026-04-22 17:42 | 54.33964 | 3.68062 | 37453 ft | 435 kts | 28° |
| 2026-04-22 17:42 | 54.39323 | 3.72865 | 37460 ft | 435 kts | 29° |
| 2026-04-22 17:43 | 54.44659 | 3.77741 | 37462 ft | 434 kts | 30° |
| 2026-04-22 17:43 | 54.50009 | 3.82561 | 37474 ft | 434 kts | 30° |
| 2026-04-22 17:44 | 54.55371 | 3.87332 | 37469 ft | 434 kts | 29° |
| 2026-04-22 17:44 | 54.60727 | 3.92123 | 37472 ft | 434 kts | 30° |
| 2026-04-22 17:45 | 54.65173 | 3.96113 | 37476 ft | 433 kts | 30° |
| 2026-04-22 17:45 | 54.71425 | 4.01757 | 37457 ft | 434 kts | 30° |
| 2026-04-22 17:46 | 54.76771 | 4.06599 | 37460 ft | 434 kts | 30° |
| 2026-04-22 17:46 | 54.82119 | 4.11453 | 37465 ft | 434 kts | 30° |
| 2026-04-22 17:47 | 54.87169 | 4.17070 | 37462 ft | 429 kts | 44° |
| 2026-04-22 17:47 | 54.91270 | 4.24554 | 37462 ft | 428 kts | 49° |
| 2026-04-22 17:48 | 54.94613 | 4.30890 | 37439 ft | 428 kts | 50° |
| 2026-04-22 17:48 | 54.99320 | 4.39812 | 37461 ft | 428 kts | 50° |
| 2026-04-22 17:49 | 55.03336 | 4.47452 | 37469 ft | 427 kts | 51° |
| 2026-04-22 17:49 | 55.07339 | 4.55113 | 37468 ft | 427 kts | 51° |
| 2026-04-22 17:50 | 55.11333 | 4.62779 | 37464 ft | 427 kts | 51° |
| 2026-04-22 17:50 | 55.15327 | 4.70450 | 37462 ft | 427 kts | 51° |
| 2026-04-22 17:51 | 55.19312 | 4.78142 | 37444 ft | 426 kts | 52° |
| 2026-04-22 17:51 | 55.23286 | 4.85838 | 37453 ft | 426 kts | 52° |
| 2026-04-22 17:52 | 55.27247 | 4.93540 | 37454 ft | 425 kts | 52° |
| 2026-04-22 17:52 | 55.30361 | 5.02154 | 37452 ft | 416 kts | 71° |
| 2026-04-22 17:53 | 55.31733 | 5.11908 | 37446 ft | 411 kts | 82° |
| 2026-04-22 17:53 | 55.32695 | 5.21816 | 37446 ft | 412 kts | 82° |
| 2026-04-22 17:54 | 55.33667 | 5.31727 | 37444 ft | 412 kts | 82° |
| 2026-04-22 17:54 | 55.34629 | 5.41649 | 37445 ft | 412 kts | 82° |
| 2026-04-22 17:55 | 55.35416 | 5.49899 | 37444 ft | 412 kts | 82° |
| 2026-04-22 17:55 | 55.36504 | 5.61433 | 37453 ft | 411 kts | 82° |
| 2026-04-22 17:56 | 55.37428 | 5.71335 | 37456 ft | 410 kts | 82° |
| 2026-04-22 17:56 | 55.38344 | 5.81218 | 37444 ft | 409 kts | 83° |
| 2026-04-22 17:57 | 55.39246 | 5.91090 | 37443 ft | 408 kts | 83° |
| 2026-04-22 17:57 | 55.40140 | 6.00930 | 37441 ft | 407 kts | 83° |
| 2026-04-22 17:58 | 55.41021 | 6.10752 | 37441 ft | 406 kts | 83° |
| 2026-04-22 17:58 | 55.41896 | 6.20548 | 37445 ft | 404 kts | 83° |
| 2026-04-22 17:59 | 55.42762 | 6.30318 | 37435 ft | 403 kts | 83° |
| 2026-04-22 17:59 | 55.43615 | 6.40063 | 37433 ft | 402 kts | 83° |
| 2026-04-22 18:00 | 55.44326 | 6.48149 | 37428 ft | 402 kts | 83° |
| 2026-04-22 18:00 | 55.45309 | 6.59525 | 37428 ft | 401 kts | 83° |
| 2026-04-22 18:01 | 55.46137 | 6.69244 | 37428 ft | 401 kts | 83° |
| 2026-04-22 18:01 | 55.46963 | 6.78966 | 37425 ft | 401 kts | 83° |
| 2026-04-22 18:02 | 55.47770 | 6.88675 | 37420 ft | 400 kts | 83° |
| 2026-04-22 18:02 | 55.48562 | 6.98383 | 37410 ft | 400 kts | 83° |
| 2026-04-22 18:03 | 55.49360 | 7.08078 | 37410 ft | 400 kts | 83° |
| 2026-04-22 18:03 | 55.50169 | 7.17775 | 37403 ft | 400 kts | 83° |
| 2026-04-22 18:04 | 55.50962 | 7.27477 | 37399 ft | 400 kts | 83° |
| 2026-04-22 18:04 | 55.51741 | 7.37186 | 37395 ft | 399 kts | 83° |
| 2026-04-22 18:05 | 55.52510 | 7.46888 | 37395 ft | 399 kts | 83° |
| 2026-04-22 18:05 | 55.53277 | 7.56600 | 37395 ft | 399 kts | 83° |
| 2026-04-22 18:06 | 55.54034 | 7.66309 | 37393 ft | 399 kts | 83° |
| 2026-04-22 18:06 | 55.54791 | 7.76027 | 37371 ft | 399 kts | 83° |
| 2026-04-22 18:07 | 55.55410 | 7.84110 | 37372 ft | 400 kts | 83° |
| 2026-04-22 18:07 | 55.56140 | 7.93837 | 37374 ft | 400 kts | 83° |
| 2026-04-22 18:08 | 55.56872 | 8.03583 | 37374 ft | 400 kts | 83° |
| 2026-04-22 18:08 | 55.57710 | 8.14919 | 37372 ft | 400 kts | 83° |
| 2026-04-22 18:09 | 55.58426 | 8.24680 | 37372 ft | 400 kts | 84° |
| 2026-04-22 18:09 | 55.59021 | 8.32859 | 37371 ft | 400 kts | 84° |
| 2026-04-22 18:10 | 55.59714 | 8.42561 | 37377 ft | 401 kts | 83° |
| 2026-04-22 18:10 | 55.60408 | 8.52412 | 37365 ft | 401 kts | 84° |
| 2026-04-22 18:11 | 55.61089 | 8.62123 | 37358 ft | 401 kts | 84° |
| 2026-04-22 18:11 | 55.61768 | 8.71910 | 37361 ft | 401 kts | 84° |
| 2026-04-22 18:12 | 55.62194 | 8.81715 | 37346 ft | 400 kts | 93° |
| 2026-04-22 18:12 | 55.61824 | 8.91532 | 37344 ft | 400 kts | 94° |
| 2026-04-22 18:13 | 55.61439 | 9.01354 | 37347 ft | 400 kts | 93° |
| 2026-04-22 18:13 | 55.61043 | 9.11177 | 37342 ft | 401 kts | 93° |
| 2026-04-22 18:14 | 55.60642 | 9.21005 | 37341 ft | 401 kts | 94° |
| 2026-04-22 18:14 | 55.60232 | 9.30837 | 37339 ft | 401 kts | 94° |
| 2026-04-22 18:15 | 55.59810 | 9.40665 | 37331 ft | 401 kts | 94° |
| 2026-04-22 18:15 | 55.59381 | 9.50495 | 37325 ft | 401 kts | 94° |
| 2026-04-22 18:16 | 55.58952 | 9.60333 | 37333 ft | 401 kts | 94° |
| 2026-04-22 18:16 | 55.58511 | 9.70175 | 37174 ft | 402 kts | 94° |
| 2026-04-22 18:16 | 55.58286 | 9.75090 | 36909 ft | 400 kts | 94° |
| 2026-04-22 18:17 | 55.58061 | 9.79994 | 36645 ft | 399 kts | 94° |
| 2026-04-22 18:17 | 55.57836 | 9.84873 | 36390 ft | 399 kts | 94° |
| 2026-04-22 18:17 | 55.57609 | 9.89739 | 36124 ft | 398 kts | 94° |
| 2026-04-22 18:17 | 55.57382 | 9.94604 | 35776 ft | 397 kts | 94° |
| 2026-04-22 18:18 | 55.57152 | 9.99467 | 35105 ft | 396 kts | 94° |
| 2026-04-22 18:18 | 55.56919 | 10.04310 | 34414 ft | 396 kts | 94° |
| 2026-04-22 18:18 | 55.56682 | 10.09168 | 33591 ft | 396 kts | 94° |
| 2026-04-22 18:18 | 55.56446 | 10.14010 | 32821 ft | 396 kts | 94° |
| 2026-04-22 18:19 | 55.56209 | 10.18860 | 32021 ft | 397 kts | 94° |
| 2026-04-22 18:19 | 55.55969 | 10.23723 | 31215 ft | 398 kts | 94° |
| 2026-04-22 18:19 | 55.55725 | 10.28597 | 30393 ft | 400 kts | 94° |
| 2026-04-22 18:19 | 55.55476 | 10.33510 | 29428 ft | 402 kts | 94° |
| 2026-04-22 18:20 | 55.55225 | 10.38445 | 28448 ft | 404 kts | 94° |
| 2026-04-22 18:20 | 55.54972 | 10.43404 | 27480 ft | 406 kts | 94° |
| 2026-04-22 18:20 | 55.54718 | 10.48320 | 26446 ft | 410 kts | 94° |
| 2026-04-22 18:20 | 55.54456 | 10.53362 | 25396 ft | 415 kts | 94° |
| 2026-04-22 18:21 | 55.54190 | 10.58423 | 24642 ft | 412 kts | 94° |
| 2026-04-22 18:21 | 55.53924 | 10.63451 | 23895 ft | 410 kts | 94° |
| 2026-04-22 18:21 | 55.53658 | 10.68451 | 23012 ft | 408 kts | 94° |
| 2026-04-22 18:21 | 55.53391 | 10.73435 | 22305 ft | 404 kts | 94° |
| 2026-04-22 18:22 | 55.53126 | 10.78338 | 21578 ft | 400 kts | 94° |
| 2026-04-22 18:22 | 55.52862 | 10.83210 | 20855 ft | 397 kts | 94° |
| 2026-04-22 18:22 | 55.52598 | 10.88056 | 20130 ft | 396 kts | 94° |
| 2026-04-22 18:22 | 55.52333 | 10.92902 | 19401 ft | 396 kts | 94° |
| 2026-04-22 18:23 | 55.52068 | 10.97738 | 18671 ft | 397 kts | 94° |
| 2026-04-22 18:23 | 55.51796 | 11.02592 | 17894 ft | 397 kts | 94° |
| 2026-04-22 18:23 | 55.51520 | 11.07435 | 17205 ft | 396 kts | 94° |
| 2026-04-22 18:24 | 55.50965 | 11.17051 | 15899 ft | 392 kts | 94° |
| 2026-04-22 18:24 | 55.50686 | 11.21826 | 15259 ft | 390 kts | 93° |
| 2026-04-22 18:24 | 55.50138 | 11.31269 | 14003 ft | 385 kts | 93° |
| 2026-04-22 18:25 | 55.49867 | 11.35945 | 13333 ft | 381 kts | 93° |
| 2026-04-22 18:25 | 55.49595 | 11.40568 | 12693 ft | 377 kts | 93° |
| 2026-04-22 18:25 | 55.49322 | 11.45142 | 12026 ft | 374 kts | 93° |
| 2026-04-22 18:26 | 55.48780 | 11.54082 | 11278 ft | 353 kts | 93° |
| 2026-04-22 18:26 | 55.48520 | 11.58293 | 11151 ft | 338 kts | 93° |
| 2026-04-22 18:26 | 55.48270 | 11.62321 | 11026 ft | 324 kts | 93° |
| 2026-04-22 18:26 | 55.48028 | 11.66204 | 10903 ft | 313 kts | 92° |
| 2026-04-22 18:27 | 55.47795 | 11.69944 | 10769 ft | 302 kts | 92° |
| 2026-04-22 18:27 | 55.47567 | 11.73589 | 10546 ft | 296 kts | 92° |
| 2026-04-22 18:27 | 55.47344 | 11.77176 | 10316 ft | 294 kts | 91° |
| 2026-04-22 18:27 | 55.47125 | 11.80744 | 10097 ft | 292 kts | 91° |
| 2026-04-22 18:28 | 55.46905 | 11.84279 | 9896 ft | 289 kts | 91° |
| 2026-04-22 18:28 | 55.46688 | 11.87776 | 9757 ft | 292 kts | 92° |
| 2026-04-22 18:28 | 55.46464 | 11.91335 | 9528 ft | 292 kts | 92° |
| 2026-04-22 18:28 | 55.46235 | 11.94909 | 9049 ft | 286 kts | 92° |
| 2026-04-22 18:29 | 55.46016 | 11.98299 | 8585 ft | 279 kts | 92° |
| 2026-04-22 18:29 | 55.45796 | 12.01695 | 8128 ft | 273 kts | 92° |
| 2026-04-22 18:29 | 55.45586 | 12.04937 | 7687 ft | 267 kts | 91° |
| 2026-04-22 18:29 | 55.45376 | 12.08160 | 7243 ft | 262 kts | 91° |
| 2026-04-22 18:30 | 55.45167 | 12.11368 | 6805 ft | 258 kts | 91° |
| 2026-04-22 18:30 | 55.44764 | 12.17532 | 5939 ft | 248 kts | 91° |
| 2026-04-22 18:30 | 55.44562 | 12.20524 | 5498 ft | 244 kts | 92° |
| 2026-04-22 18:31 | 55.44360 | 12.23524 | 4926 ft | 248 kts | 92° |
| 2026-04-22 18:31 | 55.44160 | 12.26530 | 4457 ft | 245 kts | 92° |
| 2026-04-22 18:31 | 55.43966 | 12.29411 | 4400 ft | 230 kts | 92° |
| 2026-04-22 18:31 | 55.43787 | 12.32130 | 4337 ft | 217 kts | 88° |
| 2026-04-22 18:32 | 55.43895 | 12.34706 | 4190 ft | 208 kts | 69° |
| 2026-04-22 18:32 | 55.44408 | 12.36978 | 3936 ft | 199 kts | 52° |
| 2026-04-22 18:32 | 55.45267 | 12.38804 | 3692 ft | 192 kts | 37° |
| 2026-04-22 18:32 | 55.46244 | 12.40392 | 3445 ft | 191 kts | 34° |
| 2026-04-22 18:33 | 55.47239 | 12.41933 | 3186 ft | 191 kts | 34° |
| 2026-04-22 18:33 | 55.48232 | 12.43459 | 2959 ft | 187 kts | 34° |
| 2026-04-22 18:33 | 55.49206 | 12.44952 | 2677 ft | 184 kts | 34° |
| 2026-04-22 18:33 | 55.50162 | 12.46420 | 2420 ft | 180 kts | 33° |
| 2026-04-22 18:34 | 55.51078 | 12.47829 | 2175 ft | 168 kts | 33° |
| 2026-04-22 18:34 | 55.51917 | 12.49121 | 1954 ft | 153 kts | 32° |
| 2026-04-22 18:34 | 55.52686 | 12.50304 | 1780 ft | 142 kts | 32° |
| 2026-04-22 18:34 | 55.53423 | 12.51432 | 1574 ft | 139 kts | 32° |
| 2026-04-22 18:35 | 55.54148 | 12.52552 | 1398 ft | 138 kts | 33° |
| 2026-04-22 18:35 | 55.54866 | 12.53667 | 1215 ft | 137 kts | 32° |
| 2026-04-22 18:35 | 55.55578 | 12.54765 | 1024 ft | 136 kts | 33° |
| 2026-04-22 18:35 | 55.56297 | 12.55859 | 832 ft | 137 kts | 34° |
| 2026-04-22 18:36 | 55.57036 | 12.56949 | 665 ft | 139 kts | 34° |
| 2026-04-22 18:36 | 55.57752 | 12.58096 | 474 ft | 138 kts | 39° |
| 2026-04-22 18:36 | 55.58469 | 12.59223 | 249 ft | 137 kts | 35° |
| 2026-04-22 18:36 | 55.59195 | 12.60318 | 65 ft | 137 kts | 36° |
| 2026-04-22 18:37 | 55.59871 | 12.61373 | 20 ft | 115 kts | 39° |
| 2026-04-22 18:37 | 55.60358 | 12.62109 | 17 ft | 68 kts | 41° |
| 2026-04-22 18:37 | 55.60535 | 12.62389 | 20 ft | 39 kts | 41° |
| 2026-04-22 18:37 | 55.60764 | 12.62728 | 21 ft | 24 kts | 35° |
| 2026-04-22 18:38 | 55.60879 | 12.62825 | 19 ft | 0 kts | 20° |
| 2026-04-22 18:38 | 55.60910 | 12.62843 | 19 ft | 13 kts | 16° |
| 2026-04-22 18:38 | 55.61016 | 12.62884 | 17 ft | 18 kts | 11° |
| 2026-04-22 18:39 | 55.61199 | 12.63036 | 17 ft | 17 kts | 41° |
| 2026-04-22 18:39 | 55.61281 | 12.63162 | 18 ft | 16 kts | 41° |
| 2026-04-22 18:39 | 55.61371 | 12.63302 | 17 ft | 15 kts | 41° |
| 2026-04-22 18:39 | 55.61461 | 12.63439 | 17 ft | 19 kts | 41° |
| 2026-04-22 18:40 | 55.61567 | 12.63602 | 17 ft | 22 kts | 41° |
| 2026-04-22 18:40 | 55.61676 | 12.63771 | 18 ft | 18 kts | 41° |
| 2026-04-22 18:40 | 55.61772 | 12.63918 | 17 ft | 19 kts | 40° |
| 2026-04-22 18:40 | 55.61872 | 12.64066 | 17 ft | 17 kts | 39° |
| 2026-04-22 18:41 | 55.61976 | 12.64161 | 17 ft | 16 kts | 25° |
| 2026-04-22 18:41 | 55.62085 | 12.64250 | 18 ft | 19 kts | 25° |
| 2026-04-22 18:41 | 55.62197 | 12.64345 | 15 ft | 19 kts | 26° |
| 2026-04-22 18:41 | 55.62261 | 12.64460 | 16 ft | 13 kts | 65° |
| 2026-04-22 18:42 | 55.62299 | 12.64611 | 17 ft | 12 kts | 66° |
| 2026-04-22 18:42 | 55.62330 | 12.64736 | 17 ft | 9 kts | 66° |
| 2026-04-22 18:42 | 55.62388 | 12.64783 | 17 ft | 11 kts | 359° |
| 2026-04-22 18:42 | 55.62468 | 12.64776 | 17 ft | 10 kts | 356° |
| 2026-04-22 18:43 | 55.62533 | 12.64772 | 17 ft | 10 kts | 358° |
| 2026-04-22 18:43 | 55.62583 | 12.64770 | 17 ft | 4 kts | 358° |
| 2026-04-22 18:43 | 55.62602 | 12.64775 | 17 ft | 3 kts | 28° |
| 2026-04-22 18:43 | 55.62606 | 12.64828 | 17 ft | 6 kts | 91° |
| 2026-04-22 18:44 | 55.62605 | 12.64870 | 17 ft | 2 kts | 91° |
| 2026-04-22 18:44 | 55.62605 | 12.64893 | 17 ft | 1 kts | 91° |
| 2026-04-22 18:44 | 55.62605 | 12.64898 | 17 ft | 0 kts | 91° |